Nina — ICMG — position and weather

sailwx.info

Track history (hours):
 
Tides and Currents Weather Stations Pressure Air Temp Water Temp Dewpoint Dewpoint Depression Visibility Wind Speed Wind Dir Waves Ship Positions

Nina

Last reported at 2015-Mar-30 10:17 UTC. Time now 2015-Mar-30 10:43 UTC.
Position N 51°54' E 003°34'.

Length 180 m; draft 7.2 m.

Type: Tanker. MMSI: 247239700.

Date/timePositionNaut miles runAvg speedWind from/ knotsBaromVisibWave heightAir tempDewpointWater temp
2015-Mar-30 10:17N 51°54' E 003°34'0 0.0
2015-Mar-30 06:17N 51°54' E 003°33'0 0.0
2015-Mar-30 05:13N 51°54' E 003°33'0 0.0
2015-Mar-30 04:05N 51°54' E 003°33'0 0.0
2015-Mar-30 03:23N 51°54' E 003°33'0 0.0
2015-Mar-30 02:23N 51°54' E 003°33'0 0.0
2015-Mar-30 00:29N 51°54' E 003°33'0 0.0
2015-Mar-29 22:13N 51°54' E 003°33'0 0.0
2015-Mar-29 19:25N 51°54' E 003°33'3 3.2
2015-Mar-29 18:29N 51°55' E 003°29'1311.8
2015-Mar-29 17:21N 51°52' E 003°08'3210.0
2015-Mar-29 14:06N 52°02' E 002°17'151 9.7
2015-Mar-28 22:33N 54°04' E 004°45'1010.0
2015-Mar-28 21:33N 54°05' E 005°02'1110.9
2015-Mar-28 20:31N 54°07' E 005°21'1111.1
2015-Mar-28 19:33N 54°08' E 005°39'1111.0
2015-Mar-28 18:33N 54°10' E 005°58'2912.3
2015-Mar-28 16:10N 54°12' E 006°48'3 5.3
2015-Mar-28 15:32N 54°12' E 006°53'1111.0
2015-Mar-28 14:34N 54°12' E 007°12'1110.7
2015-Mar-28 13:34N 54°11' E 007°30'1212.2
2015-Mar-28 12:34N 53°60' E 007°39'1111.0
2015-Mar-28 11:34N 53°52' E 007°53'1312.7
2015-Mar-28 10:33N 53°46' E 008°11'1515.0
2015-Mar-28 09:33N 53°36' E 008°31'1111.3
2015-Mar-28 08:33N 53°25' E 008°30'1212.1
2015-Mar-28 07:33N 53°13' E 008°30'9 8.7
2015-Mar-28 06:33N 53°07' E 008°42'1 0.8
2015-Mar-28 05:33N 53°07' E 008°43'1 1.0
2015-Mar-28 04:31N 53°07' E 008°45'0 0.0
2015-Mar-28 03:31N 53°07' E 008°45'0 0.0
2015-Mar-28 02:31N 53°07' E 008°45'0 0.0
2015-Mar-28 01:31N 53°07' E 008°45'0 0.0
2015-Mar-28 00:31N 53°07' E 008°45'0 0.0
2015-Mar-27 23:31N 53°07' E 008°45'0 0.0
2015-Mar-27 22:31N 53°07' E 008°45'0 0.0
2015-Mar-27 21:31N 53°07' E 008°45'0 0.0
2015-Mar-27 20:31N 53°07' E 008°45'0 0.0
2015-Mar-27 19:31N 53°07' E 008°45'0 0.0
2015-Mar-27 18:31N 53°07' E 008°45'0 0.0
2015-Mar-27 17:31N 53°07' E 008°45'0 0.0
2015-Mar-27 16:31N 53°07' E 008°45'0 0.0
2015-Mar-27 15:31N 53°07' E 008°45'0 0.0
2015-Mar-27 14:31N 53°07' E 008°45'0 0.0
2015-Mar-27 13:31N 53°07' E 008°45'0 0.0
2015-Mar-27 12:31N 53°07' E 008°45'0 0.0
2015-Mar-27 11:31N 53°07' E 008°45'0 0.0
2015-Mar-27 10:31N 53°07' E 008°45'0 0.0
2015-Mar-27 09:31N 53°07' E 008°45'0 0.0
2015-Mar-27 08:31N 53°07' E 008°45'0 0.0
2015-Mar-27 07:31N 53°07' E 008°45'0 0.0
2015-Mar-27 06:31N 53°07' E 008°45'0 0.0
2015-Mar-27 05:31N 53°07' E 008°45'0 0.0
2015-Mar-27 04:31N 53°07' E 008°45'0 0.0
2015-Mar-27 03:31N 53°07' E 008°45'0 0.0
2015-Mar-27 02:31N 53°07' E 008°45'0 0.0
2015-Mar-27 01:31N 53°07' E 008°45'0 0.0
2015-Mar-27 00:31N 53°07' E 008°45'0 0.0
2015-Mar-26 23:31N 53°07' E 008°45'0 0.0
2015-Mar-26 22:31N 53°07' E 008°45'0 0.0
2015-Mar-26 21:31N 53°07' E 008°45'0 0.0
2015-Mar-26 20:31N 53°07' E 008°45'0 0.0
2015-Mar-26 19:31N 53°07' E 008°45'0 0.0
2015-Mar-26 18:31N 53°07' E 008°45'0 0.0
2015-Mar-26 17:31N 53°07' E 008°45'0 0.0
2015-Mar-26 16:31N 53°07' E 008°45'0 0.0
2015-Mar-26 15:31N 53°07' E 008°45'0 0.0
2015-Mar-26 14:31N 53°07' E 008°45'0 0.0
2015-Mar-26 13:31N 53°07' E 008°45'0 0.0
2015-Mar-26 12:31N 53°07' E 008°45'0 0.0
2015-Mar-26 11:31N 53°07' E 008°45'0 0.0
2015-Mar-26 10:31N 53°07' E 008°45'0 0.0
2015-Mar-26 09:32N 53°07' E 008°45'0 0.0
2015-Mar-26 08:32N 53°07' E 008°45'0 0.0
2015-Mar-26 07:31N 53°07' E 008°45'0 0.0
2015-Mar-26 06:31N 53°07' E 008°45'0 0.0
2015-Mar-26 05:31N 53°07' E 008°45'0 0.0
2015-Mar-26 04:31N 53°07' E 008°45'0 0.0
2015-Mar-26 03:31N 53°07' E 008°45'0 0.0
2015-Mar-26 02:31N 53°07' E 008°45'0 0.0
2015-Mar-26 01:31N 53°07' E 008°45'0 0.0
2015-Mar-26 00:31N 53°07' E 008°45'0 0.0
2015-Mar-25 23:31N 53°07' E 008°45'0 0.0
2015-Mar-25 22:31N 53°07' E 008°45'0 0.0
2015-Mar-25 21:31N 53°07' E 008°45'0 0.0
2015-Mar-25 20:31N 53°07' E 008°45'0 0.0
2015-Mar-25 19:31N 53°07' E 008°45'0 0.0
2015-Mar-25 18:31N 53°07' E 008°45'0 0.0
2015-Mar-25 17:31N 53°07' E 008°45'0 0.0
2015-Mar-25 16:31N 53°07' E 008°45'0 0.0
2015-Mar-25 15:31N 53°07' E 008°45'0 0.0
2015-Mar-25 14:31N 53°07' E 008°45'0 0.0
2015-Mar-25 13:31N 53°07' E 008°45'0 0.0
2015-Mar-25 12:31N 53°07' E 008°45'0 0.0
2015-Mar-25 11:32N 53°07' E 008°45'0 0.0
2015-Mar-25 10:31N 53°07' E 008°45'0 0.0
2015-Mar-25 09:31N 53°07' E 008°45'0 0.0
2015-Mar-25 08:31N 53°07' E 008°45'0 0.0
2015-Mar-25 07:31N 53°07' E 008°45'0 0.0
2015-Mar-25 06:31N 53°07' E 008°45'0 0.0
2015-Mar-25 05:31N 53°07' E 008°45'0 0.0
2015-Mar-25 04:31N 53°07' E 008°45'0 0.0
2015-Mar-25 03:31N 53°07' E 008°45'0 0.0
2015-Mar-25 02:31N 53°07' E 008°45'0 0.0
2015-Mar-25 01:31N 53°07' E 008°45'0 0.0
2015-Mar-25 00:31N 53°07' E 008°45'0 0.0
2015-Mar-24 23:31N 53°07' E 008°45'0 0.0
2015-Mar-24 22:31N 53°07' E 008°45'0 0.0
2015-Mar-24 21:31N 53°07' E 008°45'0 0.0
2015-Mar-24 20:31N 53°07' E 008°45'0 0.0
2015-Mar-24 19:31N 53°07' E 008°45'0 0.0
2015-Mar-24 18:31N 53°07' E 008°45'0 0.0
2015-Mar-24 17:31N 53°07' E 008°45'0 0.0
2015-Mar-24 16:31N 53°07' E 008°45'0 0.0
2015-Mar-24 15:31N 53°07' E 008°45'0 0.0
2015-Mar-24 14:31N 53°07' E 008°45'0 0.0
2015-Mar-24 13:31N 53°07' E 008°45'0 0.0
2015-Mar-24 12:31N 53°07' E 008°45'0 0.0
2015-Mar-24 11:31N 53°07' E 008°45'0 0.0
2015-Mar-24 10:31N 53°07' E 008°45'0 0.0
2015-Mar-24 09:31N 53°07' E 008°45'0 0.0
2015-Mar-24 08:31N 53°07' E 008°45'0 0.0
2015-Mar-24 07:31N 53°07' E 008°45'0 0.0
2015-Mar-24 06:31N 53°07' E 008°45'0 0.0
2015-Mar-24 05:31N 53°07' E 008°45'0 0.0
2015-Mar-24 04:28N 53°07' E 008°45'0 0.0
2015-Mar-24 03:31N 53°07' E 008°45'0 0.0
2015-Mar-24 02:31N 53°07' E 008°45'0 0.0
2015-Mar-24 01:31N 53°07' E 008°45'0 0.0
2015-Mar-24 00:31N 53°07' E 008°45'0 0.0
2015-Mar-23 23:31N 53°07' E 008°45'0 0.0
2015-Mar-23 22:31N 53°07' E 008°45'0 0.0
2015-Mar-23 21:31N 53°07' E 008°45'0 0.0
2015-Mar-23 20:31N 53°07' E 008°45'0 0.0
2015-Mar-23 19:31N 53°07' E 008°45'0 0.0
2015-Mar-23 18:31N 53°07' E 008°45'0 0.0
2015-Mar-23 17:31N 53°07' E 008°45'0 0.0
2015-Mar-23 16:31N 53°07' E 008°45'0 0.0
2015-Mar-23 15:31N 53°07' E 008°45'0 0.0
2015-Mar-23 14:31N 53°07' E 008°45'0 0.0
2015-Mar-23 13:31N 53°07' E 008°45'0 0.0
2015-Mar-23 12:31N 53°07' E 008°45'0 0.0
2015-Mar-23 11:31N 53°07' E 008°45'0 0.0
2015-Mar-23 10:31N 53°07' E 008°45'0 0.0
2015-Mar-23 09:31N 53°07' E 008°45'0 0.0
2015-Mar-23 08:31N 53°07' E 008°45'0 0.0
2015-Mar-23 07:31N 53°07' E 008°45'0 0.0
2015-Mar-23 06:31N 53°07' E 008°45'0 0.0
2015-Mar-23 05:31N 53°07' E 008°45'0 0.0
2015-Mar-23 04:31N 53°07' E 008°45'1 0.6
2015-Mar-23 03:33N 53°07' E 008°44'1 0.8
2015-Mar-23 02:33N 53°07' E 008°43'4 4.1
2015-Mar-23 01:33N 53°10' E 008°37'9 9.0
2015-Mar-23 00:34N 53°17' E 008°29'1110.8
2015-Mar-22 23:33N 53°28' E 008°30'8 8.2
2015-Mar-22 22:33N 53°36' E 008°30'9 9.5
2015-Mar-22 21:33N 53°43' E 008°18'1111.5
2015-Mar-22 20:33N 53°50' E 008°03'1310.9
2015-Mar-22 19:23N 53°54' E 007°43'911.0
2015-Mar-22 18:33N 54°00' E 007°31'5 4.9
2015-Mar-22 17:33N 54°04' E 007°26'1 1.5
2015-Mar-22 16:33N 54°04' E 007°29'4 3.6
2015-Mar-22 15:33N 54°07' E 007°29'1110.6
2015-Mar-22 14:33N 54°09' E 007°11'4812.0
2015-Mar-22 10:33N 54°06' E 005°49'1212.3
2015-Mar-22 09:33N 54°04' E 005°28'1212.1
2015-Mar-22 08:32N 54°03' E 005°07'175 9.5
2015-Mar-21 14:07N 51°37' E 002°26'1012.4
2015-Mar-21 13:19N 51°30' E 002°16'912.1
2015-Mar-21 12:33N 51°21' E 002°10'1111.4
2015-Mar-21 11:34N 51°12' E 001°60'1212.4
2015-Mar-21 10:34N 51°05' E 001°43'1110.9
2015-Mar-21 09:34N 50°57' E 001°31'10 9.0
2015-Mar-21 08:24N 50°48' E 001°23'  
Track history (hours):
 
Tides and Currents Weather Stations Pressure Air Temp Water Temp Dewpoint Dewpoint Depression Visibility Wind Speed Wind Dir Waves Ship Positions

Nina

Last reported at 2015-Mar-30 10:17 UTC. Time now 2015-Mar-30 10:43 UTC.
Position N 51°54' E 003°34'.

Length 180 m; draft 7.2 m.

Type: Tanker. MMSI: 247239700.

Date/timePositionNaut miles runAvg speedWind from/ knotsBaromVisibWave heightAir tempDewpointWater temp
2015-Mar-30 10:17N 51°54' E 003°34'0 0.0
2015-Mar-30 06:17N 51°54' E 003°33'0 0.0
2015-Mar-30 05:13N 51°54' E 003°33'0 0.0
2015-Mar-30 04:05N 51°54' E 003°33'0 0.0
2015-Mar-30 03:23N 51°54' E 003°33'0 0.0
2015-Mar-30 02:23N 51°54' E 003°33'0 0.0
2015-Mar-30 00:29N 51°54' E 003°33'0 0.0
2015-Mar-29 22:13N 51°54' E 003°33'0 0.0
2015-Mar-29 19:25N 51°54' E 003°33'3 3.2
2015-Mar-29 18:29N 51°55' E 003°29'1311.8
2015-Mar-29 17:21N 51°52' E 003°08'3210.0
2015-Mar-29 14:06N 52°02' E 002°17'151 9.7
2015-Mar-28 22:33N 54°04' E 004°45'1010.0
2015-Mar-28 21:33N 54°05' E 005°02'1110.9
2015-Mar-28 20:31N 54°07' E 005°21'1111.1
2015-Mar-28 19:33N 54°08' E 005°39'1111.0
2015-Mar-28 18:33N 54°10' E 005°58'2912.3
2015-Mar-28 16:10N 54°12' E 006°48'3 5.3
2015-Mar-28 15:32N 54°12' E 006°53'1111.0
2015-Mar-28 14:34N 54°12' E 007°12'1110.7
2015-Mar-28 13:34N 54°11' E 007°30'1212.2
2015-Mar-28 12:34N 53°60' E 007°39'1111.0
2015-Mar-28 11:34N 53°52' E 007°53'1312.7
2015-Mar-28 10:33N 53°46' E 008°11'1515.0
2015-Mar-28 09:33N 53°36' E 008°31'1111.3
2015-Mar-28 08:33N 53°25' E 008°30'1212.1
2015-Mar-28 07:33N 53°13' E 008°30'9 8.7
2015-Mar-28 06:33N 53°07' E 008°42'1 0.8
2015-Mar-28 05:33N 53°07' E 008°43'1 1.0
2015-Mar-28 04:31N 53°07' E 008°45'0 0.0
2015-Mar-28 03:31N 53°07' E 008°45'0 0.0
2015-Mar-28 02:31N 53°07' E 008°45'0 0.0
2015-Mar-28 01:31N 53°07' E 008°45'0 0.0
2015-Mar-28 00:31N 53°07' E 008°45'0 0.0
2015-Mar-27 23:31N 53°07' E 008°45'0 0.0
2015-Mar-27 22:31N 53°07' E 008°45'0 0.0
2015-Mar-27 21:31N 53°07' E 008°45'0 0.0
2015-Mar-27 20:31N 53°07' E 008°45'0 0.0
2015-Mar-27 19:31N 53°07' E 008°45'0 0.0
2015-Mar-27 18:31N 53°07' E 008°45'0 0.0
2015-Mar-27 17:31N 53°07' E 008°45'0 0.0
2015-Mar-27 16:31N 53°07' E 008°45'0 0.0
2015-Mar-27 15:31N 53°07' E 008°45'0 0.0
2015-Mar-27 14:31N 53°07' E 008°45'0 0.0
2015-Mar-27 13:31N 53°07' E 008°45'0 0.0
2015-Mar-27 12:31N 53°07' E 008°45'0 0.0
2015-Mar-27 11:31N 53°07' E 008°45'0 0.0
2015-Mar-27 10:31N 53°07' E 008°45'0 0.0
2015-Mar-27 09:31N 53°07' E 008°45'0 0.0
2015-Mar-27 08:31N 53°07' E 008°45'0 0.0
2015-Mar-27 07:31N 53°07' E 008°45'0 0.0
2015-Mar-27 06:31N 53°07' E 008°45'0 0.0
2015-Mar-27 05:31N 53°07' E 008°45'0 0.0
2015-Mar-27 04:31N 53°07' E 008°45'0 0.0
2015-Mar-27 03:31N 53°07' E 008°45'0 0.0
2015-Mar-27 02:31N 53°07' E 008°45'0 0.0
2015-Mar-27 01:31N 53°07' E 008°45'0 0.0
2015-Mar-27 00:31N 53°07' E 008°45'0 0.0
2015-Mar-26 23:31N 53°07' E 008°45'0 0.0
2015-Mar-26 22:31N 53°07' E 008°45'0 0.0
2015-Mar-26 21:31N 53°07' E 008°45'0 0.0
2015-Mar-26 20:31N 53°07' E 008°45'0 0.0
2015-Mar-26 19:31N 53°07' E 008°45'0 0.0
2015-Mar-26 18:31N 53°07' E 008°45'0 0.0
2015-Mar-26 17:31N 53°07' E 008°45'0 0.0
2015-Mar-26 16:31N 53°07' E 008°45'0 0.0
2015-Mar-26 15:31N 53°07' E 008°45'0 0.0
2015-Mar-26 14:31N 53°07' E 008°45'0 0.0
2015-Mar-26 13:31N 53°07' E 008°45'0 0.0
2015-Mar-26 12:31N 53°07' E 008°45'0 0.0
2015-Mar-26 11:31N 53°07' E 008°45'0 0.0
2015-Mar-26 10:31N 53°07' E 008°45'0 0.0
2015-Mar-26 09:32N 53°07' E 008°45'0 0.0
2015-Mar-26 08:32N 53°07' E 008°45'0 0.0
2015-Mar-26 07:31N 53°07' E 008°45'0 0.0
2015-Mar-26 06:31N 53°07' E 008°45'0 0.0
2015-Mar-26 05:31N 53°07' E 008°45'0 0.0
2015-Mar-26 04:31N 53°07' E 008°45'0 0.0
2015-Mar-26 03:31N 53°07' E 008°45'0 0.0
2015-Mar-26 02:31N 53°07' E 008°45'0 0.0
2015-Mar-26 01:31N 53°07' E 008°45'0 0.0
2015-Mar-26 00:31N 53°07' E 008°45'0 0.0
2015-Mar-25 23:31N 53°07' E 008°45'0 0.0
2015-Mar-25 22:31N 53°07' E 008°45'0 0.0
2015-Mar-25 21:31N 53°07' E 008°45'0 0.0
2015-Mar-25 20:31N 53°07' E 008°45'0 0.0
2015-Mar-25 19:31N 53°07' E 008°45'0 0.0
2015-Mar-25 18:31N 53°07' E 008°45'0 0.0
2015-Mar-25 17:31N 53°07' E 008°45'0 0.0
2015-Mar-25 16:31N 53°07' E 008°45'0 0.0
2015-Mar-25 15:31N 53°07' E 008°45'0 0.0
2015-Mar-25 14:31N 53°07' E 008°45'0 0.0
2015-Mar-25 13:31N 53°07' E 008°45'0 0.0
2015-Mar-25 12:31N 53°07' E 008°45'0 0.0
2015-Mar-25 11:32N 53°07' E 008°45'0 0.0
2015-Mar-25 10:31N 53°07' E 008°45'0 0.0
2015-Mar-25 09:31N 53°07' E 008°45'0 0.0
2015-Mar-25 08:31N 53°07' E 008°45'0 0.0
2015-Mar-25 07:31N 53°07' E 008°45'0 0.0
2015-Mar-25 06:31N 53°07' E 008°45'0 0.0
2015-Mar-25 05:31N 53°07' E 008°45'0 0.0
2015-Mar-25 04:31N 53°07' E 008°45'0 0.0
2015-Mar-25 03:31N 53°07' E 008°45'0 0.0
2015-Mar-25 02:31N 53°07' E 008°45'0 0.0
2015-Mar-25 01:31N 53°07' E 008°45'0 0.0
2015-Mar-25 00:31N 53°07' E 008°45'0 0.0
2015-Mar-24 23:31N 53°07' E 008°45'0 0.0
2015-Mar-24 22:31N 53°07' E 008°45'0 0.0
2015-Mar-24 21:31N 53°07' E 008°45'0 0.0
2015-Mar-24 20:31N 53°07' E 008°45'0 0.0
2015-Mar-24 19:31N 53°07' E 008°45'0 0.0
2015-Mar-24 18:31N 53°07' E 008°45'0 0.0
2015-Mar-24 17:31N 53°07' E 008°45'0 0.0
2015-Mar-24 16:31N 53°07' E 008°45'0 0.0
2015-Mar-24 15:31N 53°07' E 008°45'0 0.0
2015-Mar-24 14:31N 53°07' E 008°45'0 0.0
2015-Mar-24 13:31N 53°07' E 008°45'0 0.0
2015-Mar-24 12:31N 53°07' E 008°45'0 0.0
2015-Mar-24 11:31N 53°07' E 008°45'0 0.0
2015-Mar-24 10:31N 53°07' E 008°45'0 0.0
2015-Mar-24 09:31N 53°07' E 008°45'0 0.0
2015-Mar-24 08:31N 53°07' E 008°45'0 0.0
2015-Mar-24 07:31N 53°07' E 008°45'0 0.0
2015-Mar-24 06:31N 53°07' E 008°45'0 0.0
2015-Mar-24 05:31N 53°07' E 008°45'0 0.0
2015-Mar-24 04:28N 53°07' E 008°45'0 0.0
2015-Mar-24 03:31N 53°07' E 008°45'0 0.0
2015-Mar-24 02:31N 53°07' E 008°45'0 0.0
2015-Mar-24 01:31N 53°07' E 008°45'0 0.0
2015-Mar-24 00:31N 53°07' E 008°45'0 0.0
2015-Mar-23 23:31N 53°07' E 008°45'0 0.0
2015-Mar-23 22:31N 53°07' E 008°45'0 0.0
2015-Mar-23 21:31N 53°07' E 008°45'0 0.0
2015-Mar-23 20:31N 53°07' E 008°45'0 0.0
2015-Mar-23 19:31N 53°07' E 008°45'0 0.0
2015-Mar-23 18:31N 53°07' E 008°45'0 0.0
2015-Mar-23 17:31N 53°07' E 008°45'0 0.0
2015-Mar-23 16:31N 53°07' E 008°45'0 0.0
2015-Mar-23 15:31N 53°07' E 008°45'0 0.0
2015-Mar-23 14:31N 53°07' E 008°45'0 0.0
2015-Mar-23 13:31N 53°07' E 008°45'0 0.0
2015-Mar-23 12:31N 53°07' E 008°45'0 0.0
2015-Mar-23 11:31N 53°07' E 008°45'0 0.0
2015-Mar-23 10:31N 53°07' E 008°45'0 0.0
2015-Mar-23 09:31N 53°07' E 008°45'0 0.0
2015-Mar-23 08:31N 53°07' E 008°45'0 0.0
2015-Mar-23 07:31N 53°07' E 008°45'0 0.0
2015-Mar-23 06:31N 53°07' E 008°45'0 0.0
2015-Mar-23 05:31N 53°07' E 008°45'0 0.0
2015-Mar-23 04:31N 53°07' E 008°45'1 0.6
2015-Mar-23 03:33N 53°07' E 008°44'1 0.8
2015-Mar-23 02:33N 53°07' E 008°43'4 4.1
2015-Mar-23 01:33N 53°10' E 008°37'9 9.0
2015-Mar-23 00:34N 53°17' E 008°29'1110.8
2015-Mar-22 23:33N 53°28' E 008°30'8 8.2
2015-Mar-22 22:33N 53°36' E 008°30'9 9.5
2015-Mar-22 21:33N 53°43' E 008°18'1111.5
2015-Mar-22 20:33N 53°50' E 008°03'1310.9
2015-Mar-22 19:23N 53°54' E 007°43'911.0
2015-Mar-22 18:33N 54°00' E 007°31'5 4.9
2015-Mar-22 17:33N 54°04' E 007°26'1 1.5
2015-Mar-22 16:33N 54°04' E 007°29'4 3.6
2015-Mar-22 15:33N 54°07' E 007°29'1110.6
2015-Mar-22 14:33N 54°09' E 007°11'4812.0
2015-Mar-22 10:33N 54°06' E 005°49'1212.3
2015-Mar-22 09:33N 54°04' E 005°28'1212.1
2015-Mar-22 08:32N 54°03' E 005°07'175 9.5
2015-Mar-21 14:07N 51°37' E 002°26'1012.4
2015-Mar-21 13:19N 51°30' E 002°16'912.1
2015-Mar-21 12:33N 51°21' E 002°10'1111.4
2015-Mar-21 11:34N 51°12' E 001°60'1212.4
2015-Mar-21 10:34N 51°05' E 001°43'1110.9
2015-Mar-21 09:34N 50°57' E 001°31'10 9.0
2015-Mar-21 08:24N 50°48' E 001°23'  

Dump ship's entire track history